createdAt,value
2023-05-17T00:00:16.056Z,89
2023-05-17T00:01:23.154Z,87
2023-05-17T00:02:30.301Z,87
2023-05-17T00:03:37.291Z,89
2023-05-17T00:04:44.420Z,85
2023-05-17T00:05:51.391Z,73
2023-05-17T00:06:58.485Z,92
2023-05-17T00:08:06.643Z,93
2023-05-17T00:09:13.938Z,81
2023-05-17T00:10:21.458Z,79
2023-05-17T00:11:28.466Z,87
2023-05-17T00:12:35.518Z,81
2023-05-17T00:13:42.662Z,91
2023-05-17T00:14:50.660Z,86
2023-05-17T00:15:57.583Z,81
2023-05-17T00:17:04.546Z,84
2023-05-17T00:18:11.579Z,85
2023-05-17T00:19:19.819Z,81
2023-05-17T00:20:27.109Z,86
2023-05-17T00:21:33.817Z,92
2023-05-17T00:22:41.119Z,81
2023-05-17T00:23:48.029Z,78
2023-05-17T00:24:55.078Z,83
2023-05-17T00:26:13.552Z,72
2023-05-17T00:27:20.579Z,79
2023-05-17T00:28:27.528Z,75
2023-05-17T00:29:34.517Z,72
2023-05-17T00:30:41.505Z,73
2023-05-17T00:31:51.213Z,76
2023-05-17T00:32:58.245Z,77
2023-05-17T00:34:05.172Z,78
2023-05-17T00:35:12.179Z,77
2023-05-17T00:36:19.221Z,69
2023-05-17T00:37:26.222Z,76
2023-05-17T00:38:35.799Z,79
2023-05-17T00:39:42.874Z,87
2023-05-17T00:40:50.406Z,82
2023-05-17T00:41:57.292Z,79
2023-05-17T00:43:04.474Z,88
2023-05-17T00:44:11.874Z,80
2023-05-17T00:45:19.098Z,84
2023-05-17T00:46:26.048Z,78
2023-05-17T00:47:33.070Z,79
2023-05-17T00:48:40.068Z,76
2023-05-17T00:49:47.177Z,79
2023-05-17T00:50:54.140Z,79
2023-05-17T00:52:01.209Z,81
2023-05-17T00:53:08.287Z,85
2023-05-17T00:54:15.202Z,80
2023-05-17T00:55:22.288Z,87
2023-05-17T00:56:29.299Z,95
2023-05-17T00:57:36.921Z,85
2023-05-17T00:58:44.050Z,81
2023-05-17T00:59:51.157Z,88
2023-05-17T01:00:58.119Z,85
2023-05-17T01:02:05.161Z,87
2023-05-17T01:03:12.321Z,94
2023-05-17T01:04:19.331Z,90
2023-05-17T01:05:26.323Z,94
2023-05-17T01:06:34.443Z,92
2023-05-17T01:07:41.555Z,97
2023-05-17T01:08:48.824Z,94
2023-05-17T01:09:55.710Z,99
2023-05-17T01:11:02.584Z,95
2023-05-17T01:12:19.752Z,99
2023-05-17T01:13:36.841Z,102
2023-05-17T01:14:51.708Z,96
2023-05-17T01:16:01.467Z,102
2023-05-17T01:17:13.677Z,100
2023-05-17T01:18:20.659Z,102
2023-05-17T01:19:27.574Z,97
2023-05-17T01:20:39.599Z,100
2023-05-17T01:21:49.404Z,102
2023-05-17T01:23:01.704Z,104
2023-05-17T01:24:13.639Z,103
2023-05-17T01:25:23.859Z,93
2023-05-17T01:26:35.891Z,95
2023-05-17T01:27:43.817Z,108
2023-05-17T01:28:50.770Z,110
2023-05-17T01:29:57.747Z,110
2023-05-17T01:31:04.654Z,99
2023-05-17T01:32:11.612Z,107
2023-05-17T01:33:18.782Z,105
2023-05-17T01:34:25.637Z,108
2023-05-17T01:35:32.592Z,102
2023-05-17T01:36:39.544Z,101
2023-05-17T01:37:49.664Z,97
2023-05-17T01:38:56.766Z,106
2023-05-17T01:40:03.777Z,109
2023-05-17T01:41:12.335Z,109
2023-05-17T01:42:19.827Z,110
2023-05-17T01:43:26.739Z,116
2023-05-17T01:44:42.710Z,111
2023-05-17T01:45:57.132Z,102
2023-05-17T01:47:06.987Z,98
2023-05-17T01:48:19.230Z,98
2023-05-17T01:49:31.142Z,103
2023-05-17T01:50:40.652Z,104
2023-05-17T01:51:47.520Z,99
2023-05-17T01:52:57.196Z,99
2023-05-17T01:54:04.200Z,102
2023-05-17T01:55:11.126Z,108
2023-05-17T01:56:25.720Z,101
2023-05-17T01:57:32.690Z,100
2023-05-17T01:58:39.764Z,97
2023-05-17T01:59:49.397Z,100
2023-05-17T02:00:56.348Z,105
2023-05-17T02:02:03.329Z,108
2023-05-17T02:03:10.244Z,101
2023-05-17T02:04:17.351Z,105
2023-05-17T02:05:24.362Z,110
2023-05-17T02:06:31.255Z,108
2023-05-17T02:07:38.237Z,106
2023-05-17T02:08:45.233Z,109
2023-05-17T02:09:52.199Z,123
2023-05-17T02:10:59.147Z,113
2023-05-17T02:12:06.052Z,106
2023-05-17T02:13:12.996Z,108
2023-05-17T02:14:21.464Z,113
2023-05-17T02:15:28.715Z,111
2023-05-17T02:16:35.607Z,108
2023-05-17T02:17:42.969Z,109
2023-05-17T02:18:50.013Z,109
2023-05-17T02:19:56.816Z,109
2023-05-17T02:21:04.586Z,100
2023-05-17T02:22:11.545Z,107
2023-05-17T02:23:18.535Z,107
2023-05-17T02:24:25.540Z,106
2023-05-17T02:25:35.449Z,106
2023-05-17T02:26:42.420Z,112
2023-05-17T02:27:49.478Z,110
2023-05-17T02:28:58.722Z,112
2023-05-17T02:30:05.834Z,112
2023-05-17T02:31:13.016Z,110
2023-05-17T02:32:20.024Z,106
2023-05-17T02:33:27.101Z,101
2023-05-17T02:34:34.030Z,110
2023-05-17T02:35:44.017Z,111
2023-05-17T02:36:51.147Z,113
2023-05-17T02:37:58.512Z,114
2023-05-17T02:39:05.500Z,114
2023-05-17T02:40:12.484Z,129
2023-05-17T02:41:22.472Z,118
2023-05-17T02:42:29.459Z,118
2023-05-17T02:43:38.942Z,109
2023-05-17T02:44:45.940Z,114
2023-05-17T02:45:55.883Z,116
2023-05-17T02:47:02.953Z,108
2023-05-17T02:48:10.029Z,115
2023-05-17T02:49:16.952Z,115
2023-05-17T02:50:23.858Z,113
2023-05-17T02:51:30.915Z,114
2023-05-17T02:52:37.975Z,111
2023-05-17T02:53:44.923Z,116
2023-05-17T02:54:51.903Z,110
2023-05-17T02:55:58.932Z,104
2023-05-17T02:57:06.021Z,110
2023-05-17T02:58:13.001Z,118
2023-05-17T02:59:22.999Z,110
2023-05-17T03:00:30.026Z,106
2023-05-17T03:01:38.533Z,108
2023-05-17T03:02:45.750Z,109
2023-05-17T03:03:52.834Z,115
2023-05-17T03:05:00.642Z,109
2023-05-17T03:06:07.755Z,107
2023-05-17T03:07:14.755Z,106
2023-05-17T03:08:21.726Z,104
2023-05-17T03:09:28.771Z,107
2023-05-17T03:10:35.735Z,115
2023-05-17T03:11:42.727Z,105
2023-05-17T03:12:49.961Z,105
2023-05-17T03:13:56.806Z,106
2023-05-17T03:15:03.841Z,120
2023-05-17T03:16:13.757Z,110
2023-05-17T03:17:23.748Z,116
2023-05-17T03:18:30.883Z,136
2023-05-17T03:19:37.743Z,115
2023-05-17T03:20:44.712Z,113
2023-05-17T03:21:51.734Z,106
2023-05-17T03:22:59.317Z,101
2023-05-17T03:24:06.319Z,97
2023-05-17T03:25:13.369Z,103
2023-05-17T03:26:20.400Z,94
2023-05-17T03:27:27.400Z,87
2023-05-17T03:28:37.236Z,84
2023-05-17T03:29:44.069Z,76
2023-05-17T03:30:51.018Z,82
2023-05-17T03:31:58.039Z,84
2023-05-17T03:33:05.066Z,85
2023-05-17T03:34:11.932Z,87
2023-05-17T03:35:18.833Z,94
2023-05-17T03:36:26.642Z,81
2023-05-17T03:37:36.275Z,84
2023-05-17T03:38:43.337Z,82
2023-05-17T03:39:53.107Z,85
2023-05-17T03:40:59.990Z,90
2023-05-17T03:42:06.924Z,83
2023-05-17T03:43:13.887Z,89
2023-05-17T03:44:21.128Z,82
2023-05-17T03:45:28.165Z,82
2023-05-17T03:46:37.603Z,79
2023-05-17T03:47:44.582Z,75
2023-05-17T03:48:51.538Z,79
2023-05-17T03:49:58.477Z,71
2023-05-17T03:51:05.430Z,69
2023-05-17T03:52:12.337Z,65
2023-05-17T03:53:19.577Z,68
2023-05-17T03:54:26.528Z,71
2023-05-17T03:55:36.119Z,77
2023-05-17T03:56:43.121Z,74
2023-05-17T03:57:50.223Z,62
2023-05-17T03:58:57.295Z,77
2023-05-17T04:00:06.927Z,69
2023-05-17T04:01:14.452Z,69
2023-05-17T04:02:21.602Z,78
2023-05-17T04:03:28.576Z,70
2023-05-17T04:04:35.596Z,77
2023-05-17T04:05:42.846Z,76
2023-05-17T04:06:49.810Z,71
2023-05-17T04:07:56.818Z,74
2023-05-17T04:09:03.751Z,74
2023-05-17T04:10:10.800Z,83
2023-05-17T04:11:17.937Z,63
2023-05-17T04:12:24.897Z,85
2023-05-17T04:13:31.830Z,77
2023-05-17T04:14:38.840Z,94
2023-05-17T04:15:45.794Z,74
2023-05-17T04:16:52.713Z,95
2023-05-17T04:17:59.747Z,89
2023-05-17T04:19:06.708Z,75
2023-05-17T04:20:13.556Z,91
2023-05-17T04:21:20.558Z,79
2023-05-17T04:22:27.503Z,69
2023-05-17T04:23:34.412Z,73
2023-05-17T04:24:41.323Z,72
2023-05-17T04:25:48.162Z,74
2023-05-17T04:26:55.129Z,69
2023-05-17T04:28:02.014Z,68
2023-05-17T04:29:09.637Z,72
2023-05-17T04:30:16.599Z,61
2023-05-17T04:31:24.150Z,64
2023-05-17T04:32:30.954Z,59
2023-05-17T04:33:37.936Z,76
2023-05-17T04:34:48.188Z,72
2023-05-17T04:35:55.222Z,55
2023-05-17T04:37:02.236Z,56
2023-05-17T04:38:09.654Z,50
2023-05-17T04:39:16.637Z,53
2023-05-17T04:40:23.545Z,55
2023-05-17T04:41:30.515Z,50
2023-05-17T04:42:37.402Z,52
2023-05-17T04:43:44.888Z,52
2023-05-17T04:44:52.147Z,67
2023-05-17T04:45:59.140Z,47
2023-05-17T04:47:09.088Z,50
2023-05-17T04:48:18.755Z,49
2023-05-17T04:49:25.590Z,57
2023-05-17T04:50:33.266Z,46
2023-05-17T04:51:40.326Z,39
2023-05-17T04:52:47.506Z,54
2023-05-17T04:53:54.698Z,35
2023-05-17T04:55:02.151Z,59
2023-05-17T04:56:09.493Z,41
2023-05-17T04:57:16.418Z,40
2023-05-17T04:58:23.781Z,58
2023-05-17T04:59:30.785Z,51
2023-05-17T05:00:40.441Z,34
2023-05-17T05:01:47.489Z,47
2023-05-17T05:02:54.577Z,46
2023-05-17T05:04:02.420Z,46
2023-05-17T05:05:09.767Z,49
2023-05-17T05:06:16.751Z,43
2023-05-17T05:07:24.312Z,59
2023-05-17T05:08:32.159Z,42
2023-05-17T05:09:39.095Z,37
2023-05-17T05:10:46.253Z,51
2023-05-17T05:11:53.249Z,40
2023-05-17T05:13:00.203Z,60
2023-05-17T05:14:07.210Z,60
2023-05-17T05:15:14.083Z,60
2023-05-17T05:16:23.752Z,41
2023-05-17T05:17:30.932Z,58
2023-05-17T05:18:40.605Z,51
2023-05-17T05:19:47.469Z,63
2023-05-17T05:20:54.441Z,48
2023-05-17T05:22:01.460Z,33
2023-05-17T05:23:08.626Z,57
2023-05-17T05:24:15.600Z,49
2023-05-17T05:25:22.528Z,57
2023-05-17T05:26:29.715Z,57
2023-05-17T05:27:36.803Z,70
2023-05-17T05:28:43.964Z,64
2023-05-17T05:29:59.992Z,61
2023-05-17T05:31:07.147Z,66
2023-05-17T05:32:14.272Z,65
2023-05-17T05:33:21.366Z,66
2023-05-17T05:34:29.022Z,52
2023-05-17T05:35:35.868Z,62
2023-05-17T05:36:43.214Z,76
2023-05-17T05:37:50.244Z,56
2023-05-17T05:38:57.245Z,68
2023-05-17T05:40:04.352Z,74
2023-05-17T05:41:11.729Z,64
2023-05-17T05:42:18.779Z,66
2023-05-17T05:43:25.789Z,69
2023-05-17T05:44:32.862Z,65
2023-05-17T05:45:39.774Z,69
2023-05-17T05:46:49.846Z,67
2023-05-17T05:47:56.917Z,72
2023-05-17T05:49:04.248Z,69
2023-05-17T05:50:11.386Z,76
2023-05-17T05:51:27.652Z,74
2023-05-17T05:52:34.713Z,65
2023-05-17T05:53:41.742Z,74
2023-05-17T05:54:50.279Z,72
2023-05-17T05:55:57.266Z,68
2023-05-17T05:57:04.277Z,71
2023-05-17T05:58:11.225Z,69
2023-05-17T05:59:18.520Z,73
2023-05-17T06:00:25.435Z,73
2023-05-17T06:01:32.410Z,69
2023-05-17T06:02:39.377Z,76
2023-05-17T06:03:46.286Z,69
2023-05-17T06:04:53.264Z,76
2023-05-17T06:06:03.829Z,83
2023-05-17T06:07:10.784Z,80
2023-05-17T06:08:18.558Z,79
2023-05-17T06:09:25.496Z,77
2023-05-17T06:10:32.653Z,76
2023-05-17T06:11:40.135Z,71
2023-05-17T06:12:47.140Z,79
2023-05-17T06:13:54.248Z,75
2023-05-17T06:15:01.272Z,70
2023-05-17T06:16:08.555Z,65
2023-05-17T06:17:15.914Z,70
2023-05-17T06:18:23.028Z,64
2023-05-17T06:20:01.866Z,70
2023-05-17T06:21:09.374Z,71
2023-05-17T06:22:19.031Z,68
2023-05-17T06:23:29.262Z,67
2023-05-17T06:24:42.774Z,71
2023-05-17T06:25:50.151Z,68
2023-05-17T06:27:00.855Z,67
2023-05-17T06:28:08.754Z,66
2023-05-17T06:29:15.662Z,78
2023-05-17T06:30:22.625Z,69
2023-05-17T06:31:32.215Z,72
2023-05-17T06:32:43.093Z,68
2023-05-17T06:33:50.654Z,70
2023-05-17T06:35:00.518Z,73
2023-05-17T06:36:09.389Z,76
2023-05-17T06:37:29.277Z,69
2023-05-17T06:38:36.751Z,78
2023-05-17T06:39:47.842Z,73
2023-05-17T06:40:50.730Z,72
2023-05-17T06:41:57.686Z,78
2023-05-17T06:43:04.819Z,75
2023-05-17T06:44:11.793Z,74
2023-05-17T06:45:17.998Z,74
2023-05-17T06:46:23.065Z,74
2023-05-17T06:47:28.189Z,74
2023-05-17T06:48:33.365Z,74
2023-05-17T06:49:38.856Z,74
2023-05-17T06:50:46.047Z,74
2023-05-17T06:51:54.478Z,74
2023-05-17T06:52:59.612Z,74
2023-05-17T06:54:04.952Z,74
2023-05-17T06:55:10.055Z,74
2023-05-17T06:56:15.841Z,74
2023-05-17T06:57:23.715Z,74
2023-05-17T06:58:29.841Z,74
2023-05-17T06:59:35.194Z,74
2023-05-17T07:00:40.340Z,74
2023-05-17T07:01:46.206Z,74
2023-05-17T07:02:51.642Z,74
2023-05-17T07:03:57.599Z,74
2023-05-17T07:05:02.705Z,74
2023-05-17T07:06:07.943Z,74
2023-05-17T07:07:15.979Z,74
2023-05-17T07:08:21.593Z,74
2023-05-17T07:09:26.516Z,74
2023-05-17T07:10:34.212Z,74
2023-05-17T07:11:42.445Z,74
2023-05-17T07:12:50.576Z,74
2023-05-17T07:13:56.321Z,74
2023-05-17T07:15:01.438Z,74
2023-05-17T07:16:13.015Z,74
2023-05-17T07:17:21.524Z,74
2023-05-17T07:18:28.483Z,74
2023-05-17T07:19:34.875Z,74
2023-05-17T07:20:43.393Z,74
2023-05-17T07:21:49.480Z,74
2023-05-17T07:22:54.986Z,74
2023-05-17T07:24:02.892Z,74
2023-05-17T07:25:11.175Z,74
2023-05-17T07:26:20.072Z,74
2023-05-17T07:27:31.001Z,74
2023-05-17T07:28:41.795Z,74
2023-05-17T07:29:49.068Z,74
2023-05-17T07:30:58.769Z,74
2023-05-17T07:32:06.080Z,74
2023-05-17T07:33:14.769Z,74
2023-05-17T07:34:21.710Z,74
2023-05-17T07:35:28.652Z,74
2023-05-17T07:36:34.109Z,74
2023-05-17T07:37:40.161Z,74
2023-05-17T07:38:55.681Z,74
2023-05-17T07:40:20.500Z,74
2023-05-17T07:41:25.865Z,74
2023-05-17T07:42:30.883Z,74
2023-05-17T07:43:38.928Z,74
2023-05-17T07:44:44.733Z,74
2023-05-17T07:46:02.300Z,74
2023-05-17T07:47:09.320Z,74
2023-05-17T07:48:15.597Z,74
2023-05-17T07:49:21.233Z,74
2023-05-17T07:50:28.757Z,74
2023-05-17T07:51:37.408Z,90
2023-05-17T07:52:48.222Z,68
2023-05-17T07:53:56.024Z,89
2023-05-17T07:55:06.760Z,94
2023-05-17T07:56:14.844Z,87
2023-05-17T07:57:26.322Z,80
2023-05-17T07:58:35.233Z,91
2023-05-17T07:59:43.335Z,78
2023-05-17T08:00:51.633Z,78
2023-05-17T08:02:01.564Z,63
2023-05-17T08:03:10.000Z,83
2023-05-17T08:04:17.780Z,82
2023-05-17T08:05:25.363Z,78
2023-05-17T08:06:33.263Z,85
2023-05-17T08:07:40.410Z,82
2023-05-17T08:08:49.620Z,74
2023-05-17T08:09:59.781Z,84
2023-05-17T08:11:18.378Z,79
2023-05-17T08:12:28.822Z,81
2023-05-17T08:13:36.131Z,77
2023-05-17T08:15:12.141Z,69
2023-05-17T08:16:19.434Z,75
2023-05-17T08:17:26.610Z,80
2023-05-17T08:18:35.150Z,70
2023-05-17T08:19:44.700Z,69
2023-05-17T08:20:49.844Z,74
2023-05-17T08:22:09.583Z,73
2023-05-17T08:23:19.012Z,74
2023-05-17T08:24:28.393Z,77
2023-05-17T08:25:35.617Z,73
2023-05-17T08:26:42.934Z,75
2023-05-17T08:27:50.735Z,74
2023-05-17T08:29:00.779Z,75
2023-05-17T08:30:12.071Z,60
2023-05-17T08:31:18.741Z,76
2023-05-17T08:32:26.760Z,73
2023-05-17T08:33:36.140Z,76
2023-05-17T08:34:43.414Z,80
2023-05-17T08:35:50.587Z,50
2023-05-17T08:36:57.973Z,55
2023-05-17T08:38:09.852Z,60
2023-05-17T08:39:28.670Z,63
2023-05-17T08:40:35.844Z,45
2023-05-17T08:41:43.104Z,68
2023-05-17T08:42:53.658Z,63
2023-05-17T08:44:01.390Z,68
2023-05-17T08:45:08.748Z,54
2023-05-17T08:46:16.043Z,53
2023-05-17T08:47:23.036Z,60
2023-05-17T08:48:31.712Z,67
2023-05-17T08:49:38.984Z,64
2023-05-17T08:50:46.276Z,53
2023-05-17T08:54:40.664Z,0
2023-05-17T08:55:47.880Z,53
2023-05-17T08:56:55.130Z,43
2023-05-17T08:58:02.539Z,62
2023-05-17T08:59:09.565Z,44
2023-05-17T09:00:16.646Z,75
2023-05-17T09:01:25.735Z,66
2023-05-17T09:02:31.438Z,73
2023-05-17T09:03:39.361Z,71
2023-05-17T09:04:46.659Z,78
2023-05-17T09:05:53.759Z,73
2023-05-17T09:07:00.569Z,74
2023-05-17T09:08:07.974Z,74
2023-05-17T09:09:16.150Z,74
2023-05-17T09:10:24.352Z,70
2023-05-17T09:11:36.506Z,73
2023-05-17T09:12:43.452Z,74
2023-05-17T09:14:02.411Z,76
2023-05-17T09:15:09.209Z,87
2023-05-17T09:16:16.057Z,89
2023-05-17T09:17:23.988Z,92
2023-05-17T09:18:33.834Z,79
2023-05-17T09:19:41.008Z,70
2023-05-17T09:20:47.615Z,80
2023-05-17T09:21:58.205Z,78
2023-05-17T09:23:05.623Z,62
2023-05-17T09:24:12.499Z,81
2023-05-17T09:25:19.457Z,51
2023-05-17T09:26:26.327Z,73
2023-05-17T09:27:44.774Z,66
2023-05-17T09:28:56.978Z,73
2023-05-17T09:30:13.136Z,66
2023-05-17T09:31:26.346Z,70
2023-05-17T09:32:37.025Z,70
2023-05-17T09:33:46.857Z,65
2023-05-17T09:34:54.112Z,67
2023-05-17T09:36:01.513Z,75
2023-05-17T09:37:11.889Z,73
2023-05-17T09:38:20.574Z,68
2023-05-17T09:39:27.383Z,67
2023-05-17T09:40:34.132Z,66
2023-05-17T09:41:44.937Z,72
2023-05-17T09:42:51.742Z,62
2023-05-17T09:43:58.631Z,63
2023-05-17T09:45:05.500Z,66
2023-05-17T09:46:12.481Z,59
2023-05-17T09:47:19.655Z,64
2023-05-17T09:49:04.910Z,59
2023-05-17T09:50:12.227Z,62
2023-05-17T09:51:19.524Z,64
2023-05-17T09:52:36.773Z,66
2023-05-17T09:53:44.658Z,67
2023-05-17T09:54:51.616Z,63
2023-05-17T09:55:58.407Z,62
2023-05-17T09:57:05.408Z,75
2023-05-17T09:58:12.627Z,65
2023-05-17T09:59:19.599Z,65
2023-05-17T10:00:27.631Z,54
2023-05-17T10:01:34.825Z,50
2023-05-17T10:02:42.042Z,57
2023-05-17T10:03:49.070Z,56
2023-05-17T10:04:55.969Z,50
2023-05-17T10:06:02.888Z,56
2023-05-17T10:07:09.952Z,54
2023-05-17T10:08:17.173Z,45
2023-05-17T10:09:24.262Z,47
2023-05-17T10:10:31.436Z,46
2023-05-17T10:11:38.495Z,48
2023-05-17T10:12:45.731Z,43
2023-05-17T10:13:52.916Z,42
2023-05-17T10:15:06.083Z,41
2023-05-17T10:16:13.295Z,41
2023-05-17T10:17:20.462Z,44
2023-05-17T10:18:28.069Z,38
2023-05-17T10:19:35.490Z,35
2023-05-17T10:20:42.869Z,36
2023-05-17T10:21:49.969Z,38
2023-05-17T10:22:58.577Z,35
2023-05-17T10:24:04.364Z,37
2023-05-17T10:25:11.462Z,37
2023-05-17T10:26:18.679Z,36
2023-05-17T10:27:28.343Z,38
2023-05-17T10:28:35.515Z,35
2023-05-17T10:29:42.670Z,35
2023-05-17T10:30:49.754Z,33
2023-05-17T10:31:57.105Z,34
2023-05-17T10:33:04.511Z,38
2023-05-17T10:34:11.516Z,41
2023-05-17T10:35:18.605Z,38
2023-05-17T10:36:25.868Z,29
2023-05-17T10:37:33.001Z,34
2023-05-17T10:38:42.727Z,28
2023-05-17T10:39:47.271Z,27
2023-05-17T10:40:54.278Z,27
2023-05-17T10:42:13.222Z,25
2023-05-17T10:43:08.496Z,29
2023-05-17T10:44:15.631Z,32
2023-05-17T10:45:22.709Z,30
2023-05-17T10:46:29.663Z,27
2023-05-17T10:47:36.818Z,33
2023-05-17T10:48:43.677Z,28
2023-05-17T10:49:55.886Z,32
2023-05-17T10:51:02.887Z,29
2023-05-17T10:52:12.952Z,26
2023-05-17T10:53:20.176Z,38
2023-05-17T10:54:27.297Z,29
2023-05-17T10:55:39.577Z,32
2023-05-17T10:56:46.607Z,37
2023-05-17T10:57:56.853Z,49
2023-05-17T10:59:13.730Z,49
2023-05-17T11:00:25.900Z,44
2023-05-17T11:01:37.467Z,41
2023-05-17T11:02:55.066Z,40
2023-05-17T11:04:12.508Z,34
2023-05-17T11:05:25.757Z,25
2023-05-17T11:06:33.085Z,25
2023-05-17T11:07:40.470Z,51
2023-05-17T11:08:47.661Z,41
2023-05-17T11:10:05.284Z,37
2023-05-17T11:11:15.324Z,43
2023-05-17T11:12:22.700Z,39
2023-05-17T11:13:32.893Z,41
2023-05-17T11:14:45.894Z,41
2023-05-17T11:15:53.057Z,43
2023-05-17T11:17:08.182Z,41
2023-05-17T11:18:29.369Z,41
2023-05-17T11:19:25.579Z,47
2023-05-17T11:20:33.519Z,45
2023-05-17T11:21:39.981Z,44
2023-05-17T11:22:50.000Z,60
2023-05-17T11:24:05.371Z,49
2023-05-17T11:25:17.436Z,49
2023-05-17T11:26:23.058Z,46
2023-05-17T11:27:32.815Z,46
2023-05-17T11:28:39.879Z,53
2023-05-17T11:29:46.990Z,55
2023-05-17T11:30:54.341Z,57
2023-05-17T11:32:01.319Z,50
2023-05-17T11:33:20.888Z,45
2023-05-17T11:34:18.546Z,54
2023-05-17T11:35:25.355Z,54
2023-05-17T11:36:37.600Z,60
2023-05-17T11:37:52.544Z,44
2023-05-17T11:39:07.925Z,47
2023-05-17T11:40:14.546Z,45
2023-05-17T11:42:28.441Z,48
2023-05-17T11:43:35.460Z,48
2023-05-17T11:44:42.418Z,57
2023-05-17T11:45:50.708Z,57
2023-05-17T11:46:56.339Z,57
2023-05-17T11:48:06.252Z,58
2023-05-17T11:49:17.812Z,44
2023-05-17T11:50:20.605Z,61
2023-05-17T11:51:27.779Z,62
2023-05-17T11:52:34.856Z,60
2023-05-17T11:53:42.074Z,66
2023-05-17T11:54:49.090Z,64
2023-05-17T11:55:56.371Z,48
2023-05-17T11:57:03.981Z,58
2023-05-17T11:58:11.247Z,62
2023-05-17T11:59:18.356Z,44
2023-05-17T12:00:28.674Z,29
2023-05-17T12:01:38.127Z,35
2023-05-17T12:02:50.989Z,40
2023-05-17T12:03:57.787Z,52
2023-05-17T12:05:04.707Z,52
2023-05-17T12:06:11.888Z,55
2023-05-17T12:07:19.405Z,54
2023-05-17T12:08:26.528Z,52
2023-05-17T12:09:34.350Z,62
2023-05-17T12:10:41.901Z,58
2023-05-17T12:11:54.708Z,56
2023-05-17T12:13:02.599Z,51
2023-05-17T12:14:10.816Z,59
2023-05-17T12:15:21.687Z,54
2023-05-17T12:16:29.683Z,51
2023-05-17T12:17:38.649Z,49
2023-05-17T12:18:46.602Z,54
2023-05-17T12:19:54.573Z,61
2023-05-17T12:21:03.456Z,59
2023-05-17T12:22:11.672Z,55
2023-05-17T12:23:19.735Z,52
2023-05-17T12:24:32.598Z,61
2023-05-17T12:25:43.424Z,53
2023-05-17T12:26:51.268Z,64
2023-05-17T12:27:59.464Z,53
2023-05-17T12:29:18.139Z,53
2023-05-17T12:30:26.574Z,52
2023-05-17T12:31:34.893Z,36
2023-05-17T12:32:43.094Z,55
2023-05-17T12:33:51.233Z,55
2023-05-17T12:34:59.174Z,52
2023-05-17T12:36:07.224Z,54
2023-05-17T12:37:15.140Z,45
2023-05-17T12:38:23.046Z,60
2023-05-17T12:39:31.291Z,50
2023-05-17T12:40:40.684Z,40
2023-05-17T12:41:47.519Z,50
2023-05-17T12:42:58.284Z,47
2023-05-17T12:45:15.278Z,25
2023-05-17T12:46:23.944Z,52
2023-05-17T12:47:31.835Z,51
2023-05-17T12:48:41.265Z,48
2023-05-17T12:49:49.187Z,55
2023-05-17T12:51:00.671Z,55
2023-05-17T12:52:17.322Z,57
2023-05-17T12:53:25.714Z,57
2023-05-17T12:54:33.824Z,47
2023-05-17T12:55:57.696Z,55
2023-05-17T12:57:05.395Z,53
2023-05-17T12:58:16.123Z,48
2023-05-17T12:59:24.036Z,49
2023-05-17T13:00:32.052Z,56
2023-05-17T13:01:39.846Z,56
2023-05-17T13:02:50.837Z,51
2023-05-17T13:03:59.195Z,47
2023-05-17T13:05:07.057Z,35
2023-05-17T13:06:20.358Z,35
2023-05-17T13:07:27.774Z,51
2023-05-17T13:08:35.890Z,47
2023-05-17T13:09:44.134Z,37
2023-05-17T13:10:52.143Z,41
2023-05-17T13:11:59.998Z,43
2023-05-17T13:13:10.482Z,43
2023-05-17T13:14:23.925Z,46
2023-05-17T13:15:41.995Z,49
2023-05-17T13:16:49.897Z,44
2023-05-17T13:17:57.929Z,41
2023-05-17T13:19:05.497Z,41
2023-05-17T13:20:16.291Z,51
2023-05-17T13:21:24.005Z,50
2023-05-17T13:22:31.812Z,54
2023-05-17T13:23:39.633Z,56
2023-05-17T13:24:50.634Z,61
2023-05-17T13:25:58.265Z,63
2023-05-17T13:27:05.954Z,52
2023-05-17T13:28:14.760Z,52
2023-05-17T13:29:31.856Z,56
2023-05-17T13:30:29.349Z,55
2023-05-17T13:31:36.229Z,51
2023-05-17T13:32:44.089Z,50
2023-05-17T13:33:51.247Z,52
2023-05-17T13:34:58.773Z,45
2023-05-17T13:36:05.848Z,36
2023-05-17T13:37:13.092Z,46
2023-05-17T13:38:19.612Z,53
2023-05-17T13:39:26.426Z,44
2023-05-17T13:40:33.333Z,39
2023-05-17T13:41:40.998Z,48
2023-05-17T13:42:49.757Z,43
2023-05-17T13:43:57.480Z,51
2023-05-17T13:45:05.467Z,50
2023-05-17T13:46:14.122Z,48
2023-05-17T13:47:22.178Z,49
2023-05-17T13:48:29.731Z,47
2023-05-17T13:49:37.349Z,44
2023-05-17T13:50:44.199Z,31
2023-05-17T13:51:50.994Z,56
2023-05-17T13:52:57.956Z,56
2023-05-17T13:54:05.647Z,57
2023-05-17T13:55:13.316Z,59
2023-05-17T13:56:21.120Z,58
2023-05-17T13:57:28.584Z,58
2023-05-17T13:58:35.435Z,62
2023-05-17T13:59:44.275Z,60
2023-05-17T14:00:50.039Z,62
2023-05-17T14:01:57.919Z,60
2023-05-17T14:03:05.585Z,57
2023-05-17T14:04:14.199Z,57
2023-05-17T14:05:22.024Z,65
2023-05-17T14:06:30.304Z,60
2023-05-17T14:07:38.069Z,61
2023-05-17T14:08:48.594Z,44
2023-05-17T14:09:56.325Z,45
2023-05-17T14:11:04.227Z,72
2023-05-17T14:12:12.335Z,66
2023-05-17T14:13:20.162Z,69
2023-05-17T14:14:28.274Z,70
2023-05-17T14:15:36.273Z,71
2023-05-17T14:16:44.007Z,69
2023-05-17T14:17:52.307Z,74
2023-05-17T14:19:02.827Z,65
2023-05-17T14:20:08.818Z,77
2023-05-17T14:21:17.080Z,71
2023-05-17T14:22:25.516Z,74
2023-05-17T14:23:34.017Z,78
2023-05-17T14:24:41.898Z,78
2023-05-17T14:25:50.025Z,51
2023-05-17T14:26:58.264Z,73
2023-05-17T14:28:05.925Z,80
2023-05-17T14:29:14.247Z,68
2023-05-17T14:30:22.470Z,72
2023-05-17T14:31:30.727Z,68
2023-05-17T14:32:38.689Z,71
2023-05-17T14:33:47.735Z,73
2023-05-17T14:34:55.356Z,71
2023-05-17T14:36:03.083Z,77
2023-05-17T14:37:10.996Z,58
2023-05-17T14:38:18.890Z,74
2023-05-17T14:39:27.188Z,54
2023-05-17T14:40:35.326Z,66
2023-05-17T14:41:44.841Z,67
2023-05-17T14:42:51.248Z,71
2023-05-17T14:43:59.223Z,71
2023-05-17T14:45:06.995Z,65
2023-05-17T14:46:14.856Z,45
2023-05-17T14:47:22.855Z,65
2023-05-17T14:48:30.848Z,66
2023-05-17T14:49:38.832Z,62
2023-05-17T14:50:46.901Z,54
2023-05-17T14:51:54.757Z,65
2023-05-17T14:53:02.560Z,68
2023-05-17T14:54:11.701Z,59
2023-05-17T14:55:18.326Z,53
2023-05-17T14:56:26.372Z,55
2023-05-17T14:57:34.412Z,42
2023-05-17T14:58:42.951Z,56
2023-05-17T14:59:50.927Z,67
2023-05-17T15:01:05.148Z,60
2023-05-17T15:02:06.620Z,66
2023-05-17T15:03:35.649Z,75
2023-05-17T15:04:43.440Z,72
2023-05-17T15:05:51.099Z,76
2023-05-17T15:06:59.099Z,80
2023-05-17T15:08:06.758Z,84
2023-05-17T15:09:14.671Z,85
2023-05-17T15:10:22.511Z,75
2023-05-17T15:11:32.062Z,83
2023-05-17T15:12:40.661Z,77
2023-05-17T15:13:48.577Z,79
2023-05-17T15:14:56.262Z,82
2023-05-17T15:16:04.405Z,90
2023-05-17T15:17:27.596Z,92
2023-05-17T15:18:35.568Z,89
2023-05-17T15:19:44.371Z,87
2023-05-17T15:20:51.881Z,72
2023-05-17T15:21:59.862Z,81
2023-05-17T15:23:07.871Z,83
2023-05-17T15:24:17.811Z,84
2023-05-17T15:25:23.720Z,77
2023-05-17T15:26:31.403Z,78
2023-05-17T15:27:39.546Z,67
2023-05-17T15:28:47.577Z,74
2023-05-17T15:29:55.383Z,91
2023-05-17T15:31:02.658Z,59
2023-05-17T15:32:15.614Z,61
2023-05-17T15:33:23.492Z,81
2023-05-17T15:34:30.936Z,80
2023-05-17T15:35:38.728Z,79
2023-05-17T15:36:46.600Z,56
2023-05-17T15:37:57.358Z,71
2023-05-17T15:39:05.924Z,63
2023-05-17T15:40:13.783Z,74
2023-05-17T15:41:21.712Z,84
2023-05-17T15:42:29.788Z,54
2023-05-17T15:43:37.453Z,58
2023-05-17T15:44:45.355Z,56
2023-05-17T15:45:53.374Z,65
2023-05-17T15:47:03.172Z,85
2023-05-17T15:48:09.442Z,60
2023-05-17T15:49:17.379Z,64
2023-05-17T15:50:25.408Z,57
2023-05-17T15:51:33.317Z,56
2023-05-17T15:52:41.083Z,67
2023-05-17T15:53:49.128Z,60
2023-05-17T15:54:56.854Z,61
2023-05-17T15:56:05.002Z,55
2023-05-17T15:57:13.181Z,72
2023-05-17T15:58:21.129Z,63
2023-05-17T15:59:29.049Z,69
2023-05-17T16:00:37.038Z,64
2023-05-17T16:01:45.234Z,82
2023-05-17T16:02:53.241Z,71
2023-05-17T16:04:01.631Z,82
2023-05-17T16:05:09.717Z,65
2023-05-17T16:06:18.931Z,67
2023-05-17T16:07:26.997Z,63
2023-05-17T16:08:35.202Z,65
2023-05-17T16:09:43.127Z,67
2023-05-17T16:10:50.996Z,69
2023-05-17T16:11:58.893Z,66
2023-05-17T16:13:06.881Z,65
2023-05-17T16:14:14.928Z,63